Lille, France

2:00 AM CEST on April 26, 2015 (GMT +0200)
La Motte Feodale | | Change Station
CLOSE
Current Station
Personal Weather Station
Location: Fretin, NORD-PAS-DE-CALAIS
Elevation: 102 ft
Nearby Weather Stations

Elev 102 ft 50.56 °N, 3.14 °E | Updated 3 seconds ago

Mostly Cloudy
Mostly Cloudy
52.9 °F
Feels Like 52.9 °F
N
0.0
Wind Variable Wind from NNE

Today
High -- | Low -- °F
--% Chance of Precip.
Yesterday
High -- | Low -- °F
Precip. -- in
6:32 AM 8:59 PM
Waxing Crescent, 50% visible
Pressure 29.74 in
Visibility 6.2 miles
Clouds Few 1500 ft
Mostly Cloudy 20000 ft
Dew Point 49 °F
Humidity 88%
Rainfall 0.14 in
Snow Depth Not available.
UV 0 out of 12
Pollen Not available.
Air Quality Not available.
Flu Activity Not available.
SPECI EBFN 252338Z 21006KT 9999 FEW015 BKN200 11/10 Q1007 BLU

More Conditions Fewer Conditions

Pressure 29.74 in
Visibility 6.2 miles
Clouds Few 1500 ft
Mostly Cloudy 20000 ft
Dew Point 49 °F
Humidity 88%
Rainfall 0.14 in
Snow Depth Not available.
UV 0 out of 12
Pollen Not available.
Air Quality Not available.
Flu Activity Not available.
SPECI EBFN 252338Z 21006KT 9999 FEW015 BKN200 11/10 Q1007 BLU

More Conditions Fewer Conditions

10-Day Weather Forecast

Almanac

Astronomy

Apr. 26, 2015 Rise Set
Actual Time
Civil Twilight
Nautical Twilight
Astronomical Twilight
Moon
Length of Visible Light
Length of Day
Tomorrow will be .
, % of the Moon is Illuminated

Today's Extremes

Country Highs Country Lows

Community

WunderPhotos

Upload Photos

1,816,853 photos uploaded!

WunderBlogs® & News

Nearby

Air Quality

  Air Quality AQ Index Pollutant
Not available.

Snow Depth

Station Depth Elevation

Earthquake Activity

City Distance Mag. Time & Date
Minimum magnitude displayed is 2.5.

Coastal Water Temperatures

Place Temperature

Stations

Nearby Weather Stations

Station Location Temp. Windchill Dew Point Humidity Wind Precip. Elev Updated Type